Time;durP1;ratioP1;P1;durP2;ratioP2;P2;SDS_P1;SDS_P2;PMS_P1;PMS_P2;Temp;Humidity;BMP_temperature;BMP_pressure;BME280_temperature;BME280_humidity;BME280_pressure;Samples;Min_cycle;Max_cycle;Signal;HPM_P1;HPM_P2
2024/03/03 00:00:34;;;;;;;;;;;;;;;10.79;76.50;99344.44;5071834;28;19919;-86
2024/03/03 00:02:59;;;;;;;;;;;;;;;10.78;76.45;99337.50;5073124;28;20433;-86
2024/03/03 00:05:25;;;;;;;;;;;;;;;10.75;76.71;99337.88;5073011;28;19913;-86
2024/03/03 00:07:50;;;;;;;;;;;;;;;10.75;75.83;99337.06;5071623;28;19985;-86
2024/03/03 00:10:15;;;;;;;;;;;;;;;10.73;76.10;99331.97;5072797;28;19916;-86
2024/03/03 00:12:40;;;;;;;;;;;;;;;10.73;75.93;99339.88;5072846;28;19912;-86
2024/03/03 00:15:06;;;;;;;;;;;;;;;10.69;76.12;99338.63;5072830;28;19916;-86
2024/03/03 00:17:31;;;;;;;;;;;;;;;10.67;76.29;99335.34;5071538;28;19916;-86
2024/03/03 00:19:56;;;;;;;;;;;;;;;10.64;76.58;99338.34;5072736;28;20285;-86
2024/03/03 00:22:22;;;;;;;;;;;;;;;10.64;76.32;99340.97;5071253;28;19942;-86
2024/03/03 00:24:47;;;;;;;;;;;;;;;10.63;75.88;99343.81;5072552;28;19935;-86
2024/03/03 00:27:12;;;;;;;;;;;;;;;10.62;76.19;99339.53;5072476;28;19966;-86
2024/03/03 00:29:38;;;;;;;;;;;;;;;10.62;76.14;99337.72;5072391;28;19913;-86
2024/03/03 00:32:03;;;;;;;;;;;;;;;10.61;77.05;99336.06;5072392;28;19920;-86
2024/03/03 00:34:28;;;;;;;;;;;;;;;10.59;77.40;99342.53;5071164;28;19920;-86
2024/03/03 00:36:54;;;;;;;;;;;;;;;10.59;76.91;99342.53;5071204;28;19919;-86
2024/03/03 00:39:19;;;;;;;;;;;;;;;10.60;76.37;99342.34;5071142;28;19913;-86
2024/03/03 00:41:44;;;;;;;;;;;;;;;10.61;76.35;99341.34;5072250;28;19913;-86
2024/03/03 00:44:09;;;;;;;;;;;;;;;10.61;75.81;99343.16;5070765;28;20279;-86
2024/03/03 00:46:35;;;;;;;;;;;;;;;10.60;75.79;99344.16;5070919;28;19919;-86
2024/03/03 00:49:00;;;;;;;;;;;;;;;10.61;76.33;99337.88;5072171;28;19919;-86
2024/03/03 00:51:25;;;;;;;;;;;;;;;10.60;76.38;99334.44;5072013;28;20522;-86
2024/03/03 00:53:51;;;;;;;;;;;;;;;10.62;75.98;99319.22;5072182;28;19913;-85
2024/03/03 00:56:16;;;;;;;;;;;;;;;10.63;75.46;99323.50;5072094;28;19931;-86
2024/03/03 00:58:41;;;;;;;;;;;;;;;10.63;76.33;99320.03;5070753;28;19919;-86
2024/03/03 01:01:07;;;;;;;;;;;;;;;10.62;75.99;99321.88;5071969;28;19970;-86
2024/03/03 01:03:32;;;;;;;;;;;;;;;10.64;75.81;99324.31;5070523;28;19921;-86
2024/03/03 01:05:57;;;;;;;;;;;;;;;10.63;75.51;99318.22;5071856;28;20007;-86
2024/03/03 01:08:23;;;;;;;;;;;;;;;10.61;76.80;99324.69;5070491;28;19913;-86
2024/03/03 01:10:48;;;;;;;;;;;;;;;10.56;76.72;99322.59;5071942;28;19916;-87
2024/03/03 01:13:13;;;;;;;;;;;;;;;10.56;76.22;99319.13;5071858;28;19935;-86
2024/03/03 01:15:38;;;;;;;;;;;;;;;10.58;76.22;99325.88;5070412;28;20037;-86
2024/03/03 01:18:04;;;;;;;;;;;;;;;10.58;76.31;99317.97;5070353;28;19977;-86
2024/03/03 01:20:29;;;;;;;;;;;;;;;10.61;76.09;99314.94;5071707;28;20008;-86
2024/03/03 01:22:55;;;;;;;;;;;;;;;10.62;75.81;99321.03;5070485;28;19912;-86
2024/03/03 01:25:20;;;;;;;;;;;;;;;10.64;75.96;99322.50;5070356;28;20307;-86
2024/03/03 01:27:45;;;;;;;;;;;;;;;10.63;75.89;99322.69;5070324;28;20029;-86
2024/03/03 01:30:10;;;;;;;;;;;;;;;10.64;76.26;99325.16;5071534;28;19917;-86
2024/03/03 01:32:35;;;;;;;;;;;;;;;10.65;76.15;99312.75;5071405;28;19912;-86
2024/03/03 01:35:01;;;;;;;;;;;;;;;10.64;76.17;99308.47;5070094;28;19923;-86
2024/03/03 01:37:26;;;;;;;;;;;;;;;10.64;75.15;99309.31;5071362;28;19970;-86
2024/03/03 01:39:51;;;;;;;;;;;;;;;10.62;75.67;99306.03;5071718;28;19912;-86
2024/03/03 01:42:17;;;;;;;;;;;;;;;10.61;75.74;99296.47;5070272;28;19912;-86
2024/03/03 01:44:42;;;;;;;;;;;;;;;10.59;76.65;99308.22;5071509;28;20347;-86
2024/03/03 01:47:08;;;;;;;;;;;;;;;10.55;76.21;99288.47;5071444;28;19913;-86
2024/03/03 01:49:34;;;;;;;;;;;;;;;10.51;75.70;99298.56;5069836;28;19913;-86
2024/03/03 01:52:00;;;;;;;;;;;;;;;10.48;76.87;99298.94;5071509;28;19913;-86
2024/03/03 01:54:26;;;;;;;;;;;;;;;10.46;76.65;99301.75;5071641;28;19948;-86
2024/03/03 01:56:52;;;;;;;;;;;;;;;10.42;77.07;99289.94;5071854;28;19960;-86
2024/03/03 01:59:18;;;;;;;;;;;;;;;10.40;76.45;99299.84;5075457;28;19913;-86
2024/03/03 02:01:44;;;;;;;;;;;;;;;10.38;76.76;99293.91;5075419;28;20333;-86
2024/03/03 02:04:10;;;;;;;;;;;;;;;10.37;76.42;99292.28;5074218;28;19912;-86
2024/03/03 02:06:36;;;;;;;;;;;;;;;10.39;75.39;99289.44;5074046;28;19913;-86
2024/03/03 02:09:01;;;;;;;;;;;;;;;10.35;76.34;99280.25;5073983;28;19939;-86
2024/03/03 02:11:30;;;;;;;;;;;;;;;10.33;75.68;99293.63;5073987;28;19970;-86
2024/03/03 02:13:55;;;;;;;;;;;;;;;10.29;75.96;99295.00;5075094;28;19919;-86
2024/03/03 02:16:20;;;;;;;;;;;;;;;10.27;75.69;99291.72;5073938;28;19951;-86
2024/03/03 02:18:46;;;;;;;;;;;;;;;10.23;75.65;99297.56;5073826;28;19948;-86
2024/03/03 02:21:11;;;;;;;;;;;;;;;10.21;74.41;99295.09;5075062;28;19916;-86
2024/03/03 02:23:36;;;;;;;;;;;;;;;10.12;74.87;99301.44;5074827;28;19919;-86
2024/03/03 02:26:02;;;;;;;;;;;;;;;10.05;76.73;99300.50;5074777;28;19985;-86
2024/03/03 02:28:27;;;;;;;;;;;;;;;10.02;76.63;99295.59;5073542;28;19909;-86
2024/03/03 02:30:53;;;;;;;;;;;;;;;9.96;77.17;99298.97;5074747;28;20051;-86
2024/03/03 02:33:19;;;;;;;;;;;;;;;9.92;77.32;99301.13;5074872;28;19912;-86
2024/03/03 02:35:44;;;;;;;;;;;;;;;9.94;76.33;99306.22;5073655;28;19919;-86
2024/03/03 02:38:10;;;;;;;;;;;;;;;9.94;77.25;99307.06;5074701;28;19920;-86
2024/03/03 02:40:35;;;;;;;;;;;;;;;9.93;77.33;99307.22;5074750;28;19912;-86
2024/03/03 02:43:01;;;;;;;;;;;;;;;9.89;77.35;99314.69;5074750;28;20320;-86
2024/03/03 02:45:26;;;;;;;;;;;;;;;9.85;77.45;99311.59;5074770;28;19956;-86
2024/03/03 02:47:53;;;;;;;;;;;;;;;9.85;77.59;99313.41;5074563;28;19993;-86
2024/03/03 02:50:19;;;;;;;;;;;;;;;9.84;77.38;99322.31;5074653;28;19916;-86
2024/03/03 02:52:44;;;;;;;;;;;;;;;9.82;77.13;99324.31;5074414;28;19919;-86
2024/03/03 02:55:09;;;;;;;;;;;;;;;9.78;77.51;99315.94;5072933;28;19916;-86
2024/03/03 02:57:35;;;;;;;;;;;;;;;9.79;77.46;99324.66;5073166;28;19909;-86
2024/03/03 03:00:00;;;;;;;;;;;;;;;9.82;77.19;99325.13;5073025;28;19913;-86
2024/03/03 03:02:25;;;;;;;;;;;;;;;9.78;77.59;99331.75;5072828;28;20417;-86
2024/03/03 03:04:52;;;;;;;;;;;;;;;9.74;77.32;99333.09;5074317;28;20552;-86
2024/03/03 03:07:17;;;;;;;;;;;;;;;9.75;77.54;99333.94;5074148;28;20430;-86
2024/03/03 03:09:44;;;;;;;;;;;;;;;9.71;77.33;99336.09;5072516;28;19956;-86
2024/03/03 03:12:09;;;;;;;;;;;;;;;9.69;77.46;99339.91;5074355;28;19912;-86
2024/03/03 03:14:35;;;;;;;;;;;;;;;9.70;77.80;99339.72;5074183;28;19912;-86
2024/03/03 03:17:00;;;;;;;;;;;;;;;9.71;77.88;99340.53;5072915;28;19912;-86
2024/03/03 03:19:28;;;;;;;;;;;;;;;9.75;77.87;99342.66;5072923;28;19920;-86
2024/03/03 03:21:54;;;;;;;;;;;;;;;9.78;77.50;99344.13;5073918;28;20384;-86
2024/03/03 03:24:19;;;;;;;;;;;;;;;9.83;77.23;99344.41;5072669;28;19912;-86
2024/03/03 03:26:44;;;;;;;;;;;;;;;9.83;77.45;99333.84;5072283;28;19935;-86
2024/03/03 03:29:09;;;;;;;;;;;;;;;9.81;77.20;99338.47;5072363;28;19916;-86
2024/03/03 03:31:35;;;;;;;;;;;;;;;9.81;77.45;99344.59;5072229;28;20015;-86
2024/03/03 03:34:00;;;;;;;;;;;;;;;9.80;77.23;99342.94;5073495;28;19912;-86
2024/03/03 03:36:25;;;;;;;;;;;;;;;9.81;77.36;99349.03;5072308;28;19934;-86
2024/03/03 03:38:51;;;;;;;;;;;;;;;9.79;77.42;99348.38;5072225;28;19916;-86
2024/03/03 03:41:16;;;;;;;;;;;;;;;9.79;76.92;99353.66;5073639;28;19913;-86
2024/03/03 03:43:41;;;;;;;;;;;;;;;9.75;77.43;99360.28;5072398;28;19927;-86
2024/03/03 03:46:07;;;;;;;;;;;;;;;9.72;75.94;99356.19;5072361;28;19912;-87
2024/03/03 03:48:33;;;;;;;;;;;;;;;9.65;77.09;99360.50;5073699;28;20385;-87
2024/03/03 03:50:58;;;;;;;;;;;;;;;9.66;77.11;99363.97;5072094;28;19924;-86
2024/03/03 03:53:23;;;;;;;;;;;;;;;9.66;76.50;99364.81;5072261;28;20007;-86
2024/03/03 03:55:49;;;;;;;;;;;;;;;9.68;77.23;99368.09;5072034;28;19920;-86
2024/03/03 03:58:14;;;;;;;;;;;;;;;9.72;77.11;99371.19;5071962;28;20434;-86
2024/03/03 04:00:39;;;;;;;;;;;;;;;9.75;77.46;99370.84;5072038;28;19912;-86
2024/03/03 04:03:06;;;;;;;;;;;;;;;9.76;77.45;99369.84;5073165;28;20356;-86
2024/03/03 04:05:31;;;;;;;;;;;;;;;9.79;77.06;99372.13;5073278;28;20381;-86
2024/03/03 04:07:56;;;;;;;;;;;;;;;9.79;76.96;99378.22;5072840;28;19967;-86
2024/03/03 04:10:22;;;;;;;;;;;;;;;9.81;76.64;99385.94;5073025;28;19917;-86
2024/03/03 04:12:47;;;;;;;;;;;;;;;9.80;76.67;99379.84;5073068;28;19912;-87
2024/03/03 04:15:13;;;;;;;;;;;;;;;9.79;76.93;99387.94;5071840;28;19912;-86
2024/03/03 04:17:39;;;;;;;;;;;;;;;9.78;76.93;99386.31;5071385;28;20305;-86
2024/03/03 04:20:05;;;;;;;;;;;;;;;9.77;76.95;99397.84;5070851;28;19912;-86
2024/03/03 04:22:30;;;;;;;;;;;;;;;9.77;76.74;99395.22;5072985;28;19991;-86
2024/03/03 04:24:56;;;;;;;;;;;;;;;9.78;77.02;99404.75;5072749;28;20441;-86
2024/03/03 04:27:21;;;;;;;;;;;;;;;9.81;77.07;99404.41;5072846;28;19912;-86
2024/03/03 04:29:49;;;;;;;;;;;;;;;9.78;76.42;99407.38;5071391;28;19916;-86
2024/03/03 04:32:15;;;;;;;;;;;;;;;9.78;76.60;99402.94;5072526;28;19913;-86
2024/03/03 04:34:40;;;;;;;;;;;;;;;9.80;77.24;99395.66;5072598;28;19953;-86
2024/03/03 04:37:06;;;;;;;;;;;;;;;9.79;77.31;99403.75;5071017;28;19967;-86
2024/03/03 04:39:33;;;;;;;;;;;;;;;9.81;76.63;99402.59;5070871;28;19920;-86
2024/03/03 04:41:58;;;;;;;;;;;;;;;9.77;76.65;99403.13;5072269;28;20479;-86
2024/03/03 04:44:23;;;;;;;;;;;;;;;9.74;76.97;99404.28;5072346;28;19975;-86
2024/03/03 04:46:48;;;;;;;;;;;;;;;9.75;76.73;99405.09;5072306;28;20370;-85
2024/03/03 04:49:14;;;;;;;;;;;;;;;9.77;76.38;99401.31;5070962;28;19912;-86
2024/03/03 04:51:39;;;;;;;;;;;;;;;9.77;76.19;99408.38;5072136;28;20374;-86
2024/03/03 04:54:04;;;;;;;;;;;;;;;9.78;75.78;99402.94;5070943;28;19918;-86
2024/03/03 04:56:29;;;;;;;;;;;;;;;9.83;75.55;99415.59;5070855;28;19969;-86
2024/03/03 04:58:55;;;;;;;;;;;;;;;9.85;76.14;99411.78;5070843;28;19934;-86
2024/03/03 05:01:20;;;;;;;;;;;;;;;9.88;75.27;99414.06;5071920;28;19966;-86
2024/03/03 05:03:45;;;;;;;;;;;;;;;9.90;75.37;99418.34;5070591;28;19913;-85
2024/03/03 05:06:11;;;;;;;;;;;;;;;9.87;75.52;99414.25;5070775;28;19913;-86
2024/03/03 05:08:36;;;;;;;;;;;;;;;9.85;75.12;99419.69;5071977;28;20386;-86
2024/03/03 05:11:01;;;;;;;;;;;;;;;9.85;75.20;99416.25;5071687;28;19975;-86
2024/03/03 05:13:27;;;;;;;;;;;;;;;9.85;75.29;99418.88;5071762;28;19912;-86
2024/03/03 05:15:52;;;;;;;;;;;;;;;9.85;75.85;99424.97;5070416;28;20369;-86
2024/03/03 05:18:18;;;;;;;;;;;;;;;9.85;75.83;99426.78;5071914;28;19917;-86
2024/03/03 05:20:44;;;;;;;;;;;;;;;9.84;75.97;99427.78;5070512;28;19986;-86
2024/03/03 05:23:09;;;;;;;;;;;;;;;9.84;76.36;99427.78;5071715;28;20347;-86
2024/03/03 05:25:35;;;;;;;;;;;;;;;9.82;75.84;99424.50;5071542;28;20054;-86
2024/03/03 05:28:00;;;;;;;;;;;;;;;9.83;75.84;99434.88;5070531;28;20373;-86
2024/03/03 05:30:26;;;;;;;;;;;;;;;9.84;75.77;99433.06;5070100;28;19923;-86
2024/03/03 05:32:52;;;;;;;;;;;;;;;9.87;75.46;99437.97;5071489;28;20014;-86
2024/03/03 05:35:17;;;;;;;;;;;;;;;9.88;75.82;99432.53;5071714;28;20041;-86
2024/03/03 05:37:43;;;;;;;;;;;;;;;9.88;74.82;99437.81;5071568;28;19918;-86
2024/03/03 05:40:08;;;;;;;;;;;;;;;9.87;75.95;99430.06;5073382;28;19917;-86
2024/03/03 05:42:34;;;;;;;;;;;;;;;9.88;75.75;99435.16;5073179;28;19912;-86
2024/03/03 05:44:59;;;;;;;;;;;;;;;9.89;75.44;99428.06;5071081;28;20389;-86
2024/03/03 05:47:24;;;;;;;;;;;;;;;9.93;74.65;99439.09;5070163;28;20377;-86
2024/03/03 05:49:50;;;;;;;;;;;;;;;9.96;74.92;99434.28;5070105;28;19912;-86
2024/03/03 05:52:15;;;;;;;;;;;;;;;9.98;75.00;99440.19;5071430;28;20389;-86
2024/03/03 05:54:40;;;;;;;;;;;;;;;10.03;74.50;99440.50;5070035;28;19913;-86
2024/03/03 05:57:06;;;;;;;;;;;;;;;10.05;74.80;99435.84;5069863;28;19912;-87
2024/03/03 05:59:32;;;;;;;;;;;;;;;10.08;74.93;99439.97;5071158;28;19920;-86
2024/03/03 06:01:57;;;;;;;;;;;;;;;10.10;75.28;99430.06;5071150;28;19920;-86
2024/03/03 06:04:22;;;;;;;;;;;;;;;10.12;74.24;99436.78;5071298;28;19919;-86
2024/03/03 06:06:48;;;;;;;;;;;;;;;10.15;74.41;99431.16;5071259;28;19912;-86
2024/03/03 06:09:13;;;;;;;;;;;;;;;10.18;74.64;99425.53;5070129;28;19958;-86
2024/03/03 06:11:39;;;;;;;;;;;;;;;10.22;75.05;99425.19;5071230;28;20506;-86
2024/03/03 06:14:06;;;;;;;;;;;;;;;10.25;74.63;99425.66;5069959;28;19919;-86
2024/03/03 06:16:31;;;;;;;;;;;;;;;10.28;74.09;99429.75;5071115;28;20392;-86
2024/03/03 06:18:57;;;;;;;;;;;;;;;10.29;74.59;99434.03;5070973;28;19912;-86
2024/03/03 06:21:22;;;;;;;;;;;;;;;10.32;74.09;99434.50;5069682;28;19913;-86
2024/03/03 06:23:47;;;;;;;;;;;;;;;10.32;74.14;99431.88;5071190;28;19912;-86
2024/03/03 06:26:16;;;;;;;;;;;;;;;10.38;73.44;99440.88;5069822;28;20396;-86
2024/03/03 06:28:45;;;;;;;;;;;;;;;10.38;73.97;99431.16;5069852;28;19912;-86
2024/03/03 06:31:13;;;;;;;;;;;;;;;10.40;74.23;99433.59;5069875;28;19986;-86
2024/03/03 06:33:38;;;;;;;;;;;;;;;10.44;73.05;99429.63;5069883;28;19952;-86
2024/03/03 06:36:04;;;;;;;;;;;;;;;10.41;73.72;99430.81;5069923;28;20400;-86
2024/03/03 06:38:29;;;;;;;;;;;;;;;10.42;73.74;99443.00;5070956;28;19912;-86
2024/03/03 06:40:55;;;;;;;;;;;;;;;10.42;73.38;99431.63;5070978;28;20374;-86
2024/03/03 06:43:20;;;;;;;;;;;;;;;10.43;73.78;99433.28;5072041;28;20003;-85
2024/03/03 06:45:45;;;;;;;;;;;;;;;10.48;73.48;99437.03;5074713;28;19912;-86
2024/03/03 06:48:11;;;;;;;;;;;;;;;10.51;74.35;99446.41;5074550;28;20336;-86
2024/03/03 06:50:36;;;;;;;;;;;;;;;10.57;73.78;99445.69;5072988;28;19916;-86
2024/03/03 06:53:01;;;;;;;;;;;;;;;10.65;73.87;99436.84;5074275;28;19912;-86
2024/03/03 06:55:27;;;;;;;;;;;;;;;10.69;73.77;99444.22;5072926;28;20378;-86
2024/03/03 06:57:52;;;;;;;;;;;;;;;10.77;73.36;99441.50;5074436;28;19947;-86
2024/03/03 07:00:18;;;;;;;;;;;;;;;10.86;73.87;99441.41;5073165;28;19950;-85
2024/03/03 07:05:27;;;;;;;;;;;;;;;10.88;73.63;99448.16;5074625;28;20308;-85
2024/03/03 07:07:52;;;;;;;;;;;;;;;10.89;73.46;99456.91;5074167;28;19912;-86
2024/03/03 07:10:18;;;;;;;;;;;;;;;10.92;72.64;99453.88;5074118;28;19917;-85
2024/03/03 07:12:43;;;;;;;;;;;;;;;10.90;73.05;99458.53;5072645;28;19919;-86
2024/03/03 07:15:09;;;;;;;;;;;;;;;10.89;73.12;99462.19;5073862;28;20344;-86
2024/03/03 07:17:34;;;;;;;;;;;;;;;10.91;72.35;99461.00;5073842;28;19959;-86
2024/03/03 07:20:01;;;;;;;;;;;;;;;10.86;72.66;99465.19;5073860;28;19934;-86
2024/03/03 07:22:31;;;;;;;;;;;;;;;10.82;74.09;99470.00;5073844;28;20370;-85
2024/03/03 07:24:56;;;;;;;;;;;;;;;10.82;72.85;99468.19;5073786;28;19958;-86
2024/03/03 07:27:21;;;;;;;;;;;;;;;10.79;73.02;99465.91;5072720;28;20379;-86
2024/03/03 07:29:46;;;;;;;;;;;;;;;10.78;73.91;99474.84;5073675;28;19934;-86
2024/03/03 07:32:12;;;;;;;;;;;;;;;10.78;74.19;99485.41;5073793;28;19920;-85
2024/03/03 07:34:37;;;;;;;;;;;;;;;10.81;73.53;99485.03;5072525;28;19999;-86
2024/03/03 07:37:02;;;;;;;;;;;;;;;10.82;74.02;99478.75;5073729;28;19912;-86
2024/03/03 07:39:28;;;;;;;;;;;;;;;10.83;74.49;99472.47;5072329;28;19913;-85
2024/03/03 07:41:53;;;;;;;;;;;;;;;10.87;73.08;99480.03;5073730;28;19973;-85
2024/03/03 07:44:18;;;;;;;;;;;;;;;10.85;73.45;99477.56;5072297;28;19919;-85
2024/03/03 07:46:43;;;;;;;;;;;;;;;10.88;73.24;99479.03;5072427;28;19945;-85
2024/03/03 07:49:09;;;;;;;;;;;;;;;10.90;73.03;99480.47;5073844;28;19912;-86
2024/03/03 07:51:34;;;;;;;;;;;;;;;10.90;73.15;99491.06;5073402;28;19916;-85
2024/03/03 07:54:00;;;;;;;;;;;;;;;10.93;72.85;99482.75;5071088;28;19976;-85
2024/03/03 07:56:25;;;;;;;;;;;;;;;10.93;73.14;99485.41;5073152;28;20364;-86
2024/03/03 07:58:50;;;;;;;;;;;;;;;10.92;73.66;99488.22;5072042;28;19912;-85
2024/03/03 08:01:15;;;;;;;;;;;;;;;10.93;72.96;99489.88;5073297;28;20370;-85
2024/03/03 08:03:41;;;;;;;;;;;;;;;10.96;73.22;99482.41;5073004;28;20360;-86
2024/03/03 08:06:06;;;;;;;;;;;;;;;10.99;72.90;99486.50;5071763;28;20282;-86
2024/03/03 08:08:31;;;;;;;;;;;;;;;11.04;72.78;99484.13;5073017;28;19919;-85
2024/03/03 08:10:56;;;;;;;;;;;;;;;11.03;72.00;99485.13;5072769;28;20314;-86
2024/03/03 08:13:22;;;;;;;;;;;;;;;11.05;72.50;99480.50;5071383;28;19913;-85
2024/03/03 08:15:47;;;;;;;;;;;;;;;11.12;72.69;99489.31;5072673;28;20290;-85
2024/03/03 08:18:12;;;;;;;;;;;;;;;11.18;72.29;99483.34;5072706;28;19908;-85
2024/03/03 08:20:37;;;;;;;;;;;;;;;11.21;71.99;99490.91;5072615;28;20282;-85
2024/03/03 08:23:03;;;;;;;;;;;;;;;11.19;71.45;99484.97;5073004;28;19919;-86
2024/03/03 08:25:28;;;;;;;;;;;;;;;11.19;71.67;99482.34;5072815;28;20359;-86
2024/03/03 08:28:01;;;;;;;;;;;;;;;11.18;71.54;99478.06;5072579;28;19912;-85
2024/03/03 08:30:26;;;;;;;;;;;;;;;11.19;71.76;99478.88;5071112;28;19924;-85
2024/03/03 08:32:51;;;;;;;;;;;;;;;11.24;72.20;99487.88;5072658;28;19913;-85
2024/03/03 08:35:16;;;;;;;;;;;;;;;11.31;71.79;99480.03;5072567;28;20370;-85
2024/03/03 08:37:44;;;;;;;;;;;;;;;11.38;70.98;99480.94;5071155;28;19916;-85
2024/03/03 08:40:09;;;;;;;;;;;;;;;11.41;70.68;99476.09;5072382;28;20374;-85
2024/03/03 08:42:35;;;;;;;;;;;;;;;11.49;70.73;99483.13;5072310;28;20007;-85
2024/03/03 08:45:00;;;;;;;;;;;;;;;11.62;71.02;99482.44;5070855;28;19916;-85
2024/03/03 08:47:25;;;;;;;;;;;;;;;11.69;70.93;99478.88;5070955;28;20408;-85
2024/03/03 08:49:51;;;;;;;;;;;;;;;11.81;70.76;99481.06;5070826;28;19912;-85
2024/03/03 08:52:16;;;;;;;;;;;;;;;11.91;70.26;99477.13;5072159;28;19920;-85
2024/03/03 08:54:42;;;;;;;;;;;;;;;12.01;69.58;99475.00;5072154;28;19956;-84
2024/03/03 08:57:07;;;;;;;;;;;;;;;12.08;68.96;99473.22;5070675;28;20375;-84
2024/03/03 08:59:32;;;;;;;;;;;;;;;12.22;68.82;99470.69;5070486;28;19913;-84
2024/03/03 09:01:57;;;;;;;;;;;;;;;12.34;68.81;99472.63;5070345;28;20023;-84
2024/03/03 09:04:23;;;;;;;;;;;;;;;12.46;68.53;99470.28;5070723;28;19920;-84
2024/03/03 09:06:48;;;;;;;;;;;;;;;12.57;68.43;99474.25;5071818;28;20294;-84
2024/03/03 09:09:16;;;;;;;;;;;;;;;12.61;67.72;99471.00;5070785;28;19913;-84
2024/03/03 09:11:43;;;;;;;;;;;;;;;12.67;67.41;99472.09;5070582;28;19964;-84
2024/03/03 09:14:09;;;;;;;;;;;;;;;12.70;67.68;99471.72;5071764;28;19913;-84
2024/03/03 09:16:34;;;;;;;;;;;;;;;12.65;67.56;99472.28;5070448;28;20436;-84
2024/03/03 09:18:59;;;;;;;;;;;;;;;12.69;67.34;99467.44;5071812;28;19913;-84
2024/03/03 09:21:25;;;;;;;;;;;;;;;12.68;67.07;99466.59;5070467;28;19913;-84
2024/03/03 09:23:50;;;;;;;;;;;;;;;12.79;67.37;99469.72;5071606;28;19913;-84
2024/03/03 09:26:15;;;;;;;;;;;;;;;12.91;67.32;99465.53;5071688;28;19956;-84
2024/03/03 09:28:41;;;;;;;;;;;;;;;13.01;66.80;99468.66;5070338;28;19913;-84
2024/03/03 09:31:06;;;;;;;;;;;;;;;13.12;66.56;99465.44;5071671;28;19960;-84
2024/03/03 09:33:31;;;;;;;;;;;;;;;13.20;66.23;99461.84;5070436;28;20457;-84
2024/03/03 09:35:57;;;;;;;;;;;;;;;13.22;66.29;99457.97;5071694;28;20450;-84
2024/03/03 09:38:22;;;;;;;;;;;;;;;13.25;66.24;99457.59;5071528;28;19912;-83
2024/03/03 09:40:47;;;;;;;;;;;;;;;13.26;66.06;99461.06;5071634;28;20487;-84
2024/03/03 09:43:16;;;;;;;;;;;;;;;13.23;65.92;99456.97;5070331;28;20309;-84
2024/03/03 09:45:43;;;;;;;;;;;;;;;13.31;66.44;99456.78;5071759;28;20443;-84
2024/03/03 09:48:08;;;;;;;;;;;;;;;13.45;65.46;99449.72;5071467;28;19912;-84
2024/03/03 09:50:34;;;;;;;;;;;;;;;13.53;65.41;99457.50;5071389;28;20385;-83
2024/03/03 09:53:01;;;;;;;;;;;;;;;13.61;65.71;99456.50;5071479;28;20390;-83
2024/03/03 09:55:28;;;;;;;;;;;;;;;13.64;65.12;99462.25;5070111;28;19995;-83
2024/03/03 09:57:53;;;;;;;;;;;;;;;13.65;64.81;99455.91;5070188;28;19913;-83
2024/03/03 10:00:18;;;;;;;;;;;;;;;13.55;64.63;99455.47;5071328;28;19970;-83
2024/03/03 10:02:44;;;;;;;;;;;;;;;13.53;64.73;99452.22;5071144;28;19921;-83
2024/03/03 10:05:10;;;;;;;;;;;;;;;13.55;64.59;99457.31;5071325;28;20385;-83
2024/03/03 10:07:52;;;;;;;;;;;;;;;13.62;65.23;99450.19;5071184;28;19916;-83
2024/03/03 10:10:18;;;;;;;;;;;;;;;13.63;64.62;99457.13;5069966;28;19916;-83
2024/03/03 10:12:46;;;;;;;;;;;;;;;13.58;64.90;99455.09;5069991;28;20377;-83
2024/03/03 10:15:11;;;;;;;;;;;;;;;13.54;64.99;99456.50;5069909;28;19913;-83
2024/03/03 10:17:37;;;;;;;;;;;;;;;13.51;63.78;99453.44;5071109;28;20308;-83
2024/03/03 10:20:06;;;;;;;;;;;;;;;13.59;64.57;99450.59;5074183;28;19920;-83
2024/03/03 10:22:31;;;;;;;;;;;;;;;13.65;64.33;99449.78;5075006;28;19911;-83
2024/03/03 10:25:13;;;;;;;;;;;;;;;13.71;64.33;99446.34;5074908;28;19913;-83
2024/03/03 10:27:48;;;;;;;;;;;;;;;13.74;63.97;99447.78;5074830;28;19955;-83
2024/03/03 10:30:14;;;;;;;;;;;;;;;13.76;64.45;99443.91;5074886;28;19913;-83
2024/03/03 10:32:40;;;;;;;;;;;;;;;13.77;64.60;99442.06;5073427;28;20317;-83
2024/03/03 10:35:10;;;;;;;;;;;;;;;13.74;64.71;99437.16;5074596;28;19919;-83
2024/03/03 10:37:35;;;;;;;;;;;;;;;13.69;63.15;99435.09;5073142;28;19968;-83
2024/03/03 10:40:01;;;;;;;;;;;;;;;13.70;63.15;99431.44;5074739;28;19913;-83
2024/03/03 10:42:29;;;;;;;;;;;;;;;13.75;63.34;99431.66;5074519;28;20364;-82
2024/03/03 10:44:54;;;;;;;;;;;;;;;13.85;62.76;99424.13;5074451;28;19919;-83
2024/03/03 10:47:20;;;;;;;;;;;;;;;13.91;63.72;99418.00;5074421;28;19912;-82
2024/03/03 10:49:45;;;;;;;;;;;;;;;13.95;62.81;99411.25;5074373;28;20385;-83
2024/03/03 10:52:11;;;;;;;;;;;;;;;14.07;63.94;99410.66;5072995;28;19967;-83
2024/03/03 10:54:37;;;;;;;;;;;;;;;14.10;62.97;99412.91;5072978;28;19912;-83
2024/03/03 10:57:02;;;;;;;;;;;;;;;14.10;62.17;99405.75;5074221;28;19928;-83
2024/03/03 10:59:34;;;;;;;;;;;;;;;14.17;62.28;99406.59;5074294;28;19916;-83
2024/03/03 11:02:01;;;;;;;;;;;;;;;14.23;61.91;99400.47;5074171;28;20012;-83
2024/03/03 11:04:30;;;;;;;;;;;;;;;14.31;61.44;99399.44;5074528;28;19981;-83
2024/03/03 11:06:57;;;;;;;;;;;;;;;14.32;61.19;99399.25;5072802;28;19912;-83
2024/03/03 11:09:23;;;;;;;;;;;;;;;14.32;61.15;99393.94;5074277;28;19923;-83
2024/03/03 11:11:53;;;;;;;;;;;;;;;14.34;60.83;99391.06;5074224;28;20011;-82
2024/03/03 11:14:22;;;;;;;;;;;;;;;14.37;60.58;99389.84;5072875;28;20347;-82
2024/03/03 11:16:48;;;;;;;;;;;;;;;14.32;61.35;99379.84;5072853;28;19912;-82
2024/03/03 11:19:19;;;;;;;;;;;;;;;14.32;61.54;99385.16;5072581;28;19916;-82
2024/03/03 11:21:50;;;;;;;;;;;;;;;14.31;61.89;99375.53;5073909;28;19958;-82
2024/03/03 11:24:21;;;;;;;;;;;;;;;14.31;60.89;99371.06;5073852;28;20442;-82
2024/03/03 11:26:49;;;;;;;;;;;;;;;14.37;60.34;99374.72;5073701;28;19912;-82
2024/03/03 11:29:19;;;;;;;;;;;;;;;14.41;60.91;99367.16;5071225;28;19912;-82
2024/03/03 11:31:45;;;;;;;;;;;;;;;14.38;60.39;99360.41;5073540;28;20289;-82
2024/03/03 11:34:12;;;;;;;;;;;;;;;14.32;60.33;99366.56;5073734;28;19924;-82
2024/03/03 11:36:37;;;;;;;;;;;;;;;14.29;60.77;99372.28;5072456;28;19912;-82
2024/03/03 11:39:09;;;;;;;;;;;;;;;14.28;62.16;99365.34;5072520;28;19913;-82
2024/03/03 11:41:38;;;;;;;;;;;;;;;14.24;61.15;99366.78;5072298;28;19919;-82
2024/03/03 11:44:04;;;;;;;;;;;;;;;14.23;60.60;99368.63;5073552;28;19913;-82
2024/03/03 11:46:45;;;;;;;;;;;;;;;14.28;61.79;99360.84;5073658;28;19912;-82
2024/03/03 11:49:11;;;;;;;;;;;;;;;14.34;61.86;99367.16;5072190;28;19917;-82
2024/03/03 11:51:36;;;;;;;;;;;;;;;14.43;60.50;99352.69;5073296;28;19916;-82
2024/03/03 11:54:06;;;;;;;;;;;;;;;14.55;61.39;99363.47;5072170;28;19917;-82
2024/03/03 11:56:43;;;;;;;;;;;;;;;14.56;60.75;99357.97;5074287;28;19912;-82
2024/03/03 11:59:08;;;;;;;;;;;;;;;14.44;60.32;99359.63;5073649;28;19912;-82
2024/03/03 12:01:33;;;;;;;;;;;;;;;14.41;60.21;99354.69;5073301;28;19919;-82
2024/03/03 12:03:59;;;;;;;;;;;;;;;14.35;59.50;99357.34;5074217;28;20369;-82
2024/03/03 12:06:26;;;;;;;;;;;;;;;14.40;60.09;99360.22;5075027;28;20003;-82
2024/03/03 12:09:00;;;;;;;;;;;;;;;14.43;60.32;99351.84;5076238;28;19912;-81
2024/03/03 12:11:26;;;;;;;;;;;;;;;14.45;58.92;99353.28;5073785;28;19917;-82
2024/03/03 12:13:57;;;;;;;;;;;;;;;14.53;60.24;99352.25;5071675;28;19999;-82
2024/03/03 12:16:23;;;;;;;;;;;;;;;14.53;59.79;99344.28;5071529;28;20431;-82
2024/03/03 12:18:48;;;;;;;;;;;;;;;14.53;59.56;99347.75;5072767;28;19999;-82
2024/03/03 12:21:14;;;;;;;;;;;;;;;14.56;60.09;99338.53;5072746;28;19916;-82
2024/03/03 12:23:39;;;;;;;;;;;;;;;14.57;60.02;99340.19;5072639;28;19912;-82
2024/03/03 12:26:04;;;;;;;;;;;;;;;14.50;59.80;99339.38;5071195;28;19916;-82
2024/03/03 12:28:30;;;;;;;;;;;;;;;14.45;59.53;99331.22;5072394;28;19920;-81
2024/03/03 12:30:57;;;;;;;;;;;;;;;14.50;59.67;99334.06;5071084;28;19917;-82
2024/03/03 12:33:24;;;;;;;;;;;;;;;14.53;59.50;99331.81;5072390;28;19919;-81
2024/03/03 12:35:50;;;;;;;;;;;;;;;14.60;59.89;99335.25;5071115;28;20351;-82
2024/03/03 12:38:17;;;;;;;;;;;;;;;14.60;59.51;99334.44;5072279;28;19918;-81
2024/03/03 12:40:42;;;;;;;;;;;;;;;14.65;59.26;99333.81;5072149;28;19919;-82
2024/03/03 12:43:11;;;;;;;;;;;;;;;14.68;59.30;99336.06;5071088;28;19913;-81
2024/03/03 12:45:37;;;;;;;;;;;;;;;14.72;59.10;99332.78;5071070;28;19988;-82